Timeline UpdatesTrip UpdatesNews PostsPvt Posts♥♥Travel TipsAdmin PostsConv PostsFollowed PostsChat RequestsBlog PostsPNR Posts

Disclaimer
Search
 
 
Sun Nov 23, 2014 05:13:34 ISTHomeTrainsΣChainsAtlasPNRForumGalleryNewsFAQTripsMembersLoginFeedback
No Recent News for this Train
Other Trains in the News **new
Latest...
.
Sat Feb 22, 2014 (07:36PM)
⇐ Return Journey: Train# 17057

17058/Devagiri Express

Time-Table HAS CHANGED.
Sep 01 2014 (11:47PM)
Change Departure Station:
Change Arrival Station:
Post a Train Travel TipPost a Train Travel Tip **new
Post a Comment/Question/Picture/VideoPost a Comment/Question/Picture/Video
Pantry/Catering
✕ NO Pantry Car
✓ Catering Avbl
RSA - Rake Sharing
17057/17058/12710/12709 has RSA
Rake/Coach Composition
LOCO-SLR-GEN-GEN-S1-S2-S3-S4-S5-S6-S7-S8-S9-S10-S11-S12-B1-B2-A1-HA1-GEN-GEN-SLR.
Loco
SC-MMR: MLY WDM-3A twins. MMR-CSTM: KYN WCAM-3
News    PNR    Forum    Time-Table    Availability    Fare Chart    Map    Arr/Dep History    Trips    Gallery    ΣChains    X/O    Timeline    
Travel Time: 18h 45m    27 halts    Distance: 879 km    Avg Speed: 46 km/hr
Type: Mail/Express
Zone: SCR/South Central
Departs @ 12:25 (Avg 3m late)
Platform# 9
SMTWTFS
Secunderabad Junction/SC 
Arrives @ 07:10 +1 night (Avg 12m late)
Platform# 10
SMTWTFS
Mumbai CST/CSTM 

27 halts. 141 intermediate Stations between Secunderabad Junction and Mumbai CST

Hide intermediate Stations  Show Old Time-Table

#TrkCodeStation NameX/OArrivesAvgDepartsAvgHaltPFDay#KmSpeedElevZoneAddress
1|--|SCSecunderabad Junction (10)»  -12:55 12:25+3910.055539mSCRSecunderabad 500003, Telangana
1.1/--/LGDHLalaguda Gate (2)  12:28-12:28-  12.4 55543mSCRSecunderabad, Telangana
1.2/-=|MJFMalkajgiri (3)  12:29-12:29-  13.4 55535mSCRSecunderabad, Telangana
1.3|==|DYEDayanand Nagar (2)  12:30-12:30-  14.3 55537mSCRSecunderabad, Telangana
1.4|==|SFXSafilguda (2)  12:30-12:30-  14.9 55544mSCRSecunderabad, Telangana
1.5|==|RKORamakistapuram Gate (2)  12:32-12:32-  16.7 55561mSCRSecunderabad, Telangana
1.6|==|AMQAmmuguda Halt (2)  12:34-12:34-  17.8 55569mSCRSecunderabad, Telangana
1.7|==|CVBCavalry Barracks (3)  12:35-12:35-  19.1 55575mSCRSecunderabad, Telangana
1.8|==|ALWAlwal (2)  12:36-12:36-  110.4 55580mSCRSecunderabad, Telangana
1.9|==|BOZBolarum Bazar (2)  12:38-12:38-  112.0 55584mSCRSecunderabad, Telangana
2|=-|BMOBolarum (3)  13:21 12:40+1513:22 12:41+161m2113.6101597mSCRSecunderabad, Telangana
2.1|--|GOPLGundlapochampalli  12:44-12:44-  118.9 101601mSCRRangareddy Dist., Telangana
2.2|--|GDPLGundla Pochampally (1)X  12:44-12:44-  119.0 101601mSCRRangareddy Dist., Telangana
2.3|--|GWVGowdavalli (1)  12:47-12:47-  124.1 101601mSCRRangareddy Dist., Telangana
2.4|--|MEDMedchal (3)X  12:49-12:49-  127.5 101602mSCRRangareddy Dist., Telangana
2.5|--|DBVDabilpur (1)  12:52-12:52-  131.5 101611mSCRRangareddy Dist., Telangana
2.6|--|KUCHKuchavaram Halt (1)  12:56-12:56-  138.1 101595mSCRRangareddy, Telangana
2.7|--|MOBManoharabad (2)X  12:57-12:57-  140.8 101593mSCRMedak Dist., Telangana
2.8|--|PAPMPalata Potaram (1)  13:05-13:05-  153.3 101522mSCRMedak Dist., Telangana
2.9|--|BMPLBrahmanapalli (1)  13:06-13:06-  155.0 101528mSCRMedak Dist., Telangana
2.10|--|MEMasaipet (2)  13:07-13:07-  157.9 101520mSCRMedak Dist., Telangana
2.11|--|SHANSrinivasa Nagar  13:09-13:09-  161.0 101522mSCRMedak Dist., Telangana
2.12|--|WDRWadiaram (2)  13:12-13:12-  165.7 101547mSCRMedak Dist., Telangana
3|--|MZLMirzapalli (1)  14:14 13:16+3114:15 13:17+321m1172.392530mSCRMedak Dist., Telangana
3.1|--|SNPHShankapur Halt  13:21-13:21-  177.9 92547mSCRNizamabad Dist., Telangana
4|--|AKEAkanapet (1)  14:24 13:24+3514:25 13:25+351m1183.141566mSCRMedak District., Telangana
4.1|--|BKUBhiknur  13:34-13:34-  189.2 41575mSCRNizamabad Dist., Telangana
4.2|--|THPRTippapur (1)  13:40-13:40-  193.2 41549mSCRNizamabad Dist., Telangana
4.3|--|TMDTalmadla  13:48-13:48-  198.8 41559mSCRNizamabad Dist., Telangana
5|--|KMCKamareddi (3)  14:50 14:03+2414:51 14:05+241 2m11108.857528mSCRNizamabad Dist., Telangana
5.1|--|UPWUppalavai  14:17-14:17-  1120.0 57529mSCRNizamabad Dist., Telangana
5.2|--|SCPSirnapalli  14:28-14:28-  1130.5 57456mSCRNizamabad Dist., Telangana
5.3|--|IDLIndalvai (1)X  14:36-14:36-  1138.3 57439mSCRNizamabad Dist., Telangana
5.4|--|DHPDichpalliX  14:46-14:46-  1147.8 57424mSCRNizamabad Dist., Telangana
6|--|NZBNizamabad (3)  15:50 15:00+2015:52 15:05+212 5m11160.659384mSCRNizamabad, Telangana
6.1|--|JKMJankampet Junction (1)  15:11-15:11-  1166.9 59391mSCRJankampet Junction nizamabad dist., Telangana
6.2|--|NVTNavipet (2)  15:21-15:21-  1176.3 59374mSCRNizamabad Dist., Telangana
6.3|--|FKBFakrabad (1)  15:28-15:28-  1183.3 59348mSCRNizamabad Dist., Telangana
7|--|BSXBasar (2)  16:31 15:35+2216:32 15:37+241 2m21190.066358mSCRDist Adilabad, Telangana
8|--|DABDharmabad (2)X  16:44 15:46+2516:45 15:47+281m--1199.954354mSCRDegaon, Maharashtra
8.1|--|SQESamarala HaltX  15:54-15:54-  1206.3 54360mSCRDharmabad, Maharashtra
8.2|--|CIKAChikna  15:59-15:59-  1211.0 54376mSCRSaikhed, Maharashtra
8.3|--|KEKKarkheli  16:02-16:02-  1213.6 54358mSCRBiloli, Maharashtra
8.4|--|BLSABolsa  16:11-16:11-  1220.9 54361mSCRDharmabad, Maharashtra
9|--|UMRIUmri (1)  17:19 16:20+2517:20 16:21+301m11229.325381mSCRHuzur Sahib Nanded, Maharashtra
9.1|--|SLGHShelgaon Halt  16:40-16:40-  1237.1 25378mSCRMudkhed, Maharashtra
9.2|--|SVNSivungaonX  16:51-16:51-  1241.6 25395mSCRHuzur Sahib Nanded, Maharashtra
10|--|MUEMudkhed Junction (4)X  17:40 17:08+2317:42 17:10+252m--1248.827378mSCRMudkhed, Maharashtra
10.1|--|MGCMugat  17:30-17:30-  1258.0 27360mSCRHuzur Sahib Nanded, Maharashtra
10.2|--|PARDPathrad  17:38-17:38-  1261.3 27363mSCRHuzur Sahib Nanded, Maharashtra
10.3|--|MTDIMaltekdi  17:54-17:54-  1268.4 27362mSCRNanded, Maharashtra
11|--|NEDHazur Sahib Nanded (4)  18:30 18:00+1118:35 18:05+175m11271.248366mSCRNanded, Maharashtra
11.1|--|WNGWanegaonX  18:13-18:13-  1277.6 48371mSCRChudawa, Maharashtra
11.2|--|LBGLimbgaon (2)X  18:19-18:19-  1282.3 48390mSCRHuzur Sahib Nanded, Maharashtra
11.3|--|CRUChudawa (1)X  18:31-18:31-  1291.9 48392mSCRHingoli, Maharashtra
12|--|PAUPurna Junction (4)X  19:30 18:43+2119:35 18:45+345 2m--1301.840384mSCRPurna, Maharashtra
12.1|--|MQLMirkhal  19:03-19:03-  1313.9 40405mSCRPurna, Maharashtra
12.2|--|PIZPingli (1)  19:11-19:11-  1319.2 40399mSCRParbhani, Maharashtra
13|--|PBNParbhani Junction (3)  20:00 19:28+2520:05 19:30+305 2m11330.268414mSCRParbhani 431401, Maharashtra
13.1|--|PGPergaonX  19:41-19:41-  1342.3 68441mSCRParbhani, Maharashtra
13.2|--|DAVDevalgaon Avchar  19:46-19:46-  1348.4 68425mSCRParbhani, Maharashtra
14|--|MVOManwath Road (2)X  20:29 19:54+3320:30 19:55+361m--1357.638421mSCRParbhani, Maharashtra
14.1|--|DGPPDhengli Pimpalgaon  20:04-20:04-  1363.0 38407mSCRSatuna, Maharashtra
15|--|SELUSelu (2)  20:49 20:19+3320:50 20:20+341m--1372.657436mSCRParbhani, Maharashtra
15.1|--|SCOSatuna  20:31-20:31-  1382.8 57440mSCRSatona, Maharashtra
15.2|--|UPRUsmanpur  20:39-20:39-  1390.7 57444mSCRUsmanpur, Maharashtra
16|--|PTUPartur (2)X  21:19 20:49+3021:20 20:50+321m--1400.235465mSCRJalna, Maharashtra
16.1|--|PDGParadgaon  21:02-21:02-  1407.4 35454mSCRUsmanpur, Maharashtra
16.2|--|RNERanjaniO  21:13-21:13-  1413.7 35469mSCRJalna, Maharashtra
16.3|--|KODIKodi  21:32-21:32-  1424.9 35473mSCRRanjani, Maharashtra
16.4|--|SVDSarwariXO  21:49-21:49-  1434.9 35493mSCRRanjani, Maharashtra
17|--|JJalna (3)X  22:05+222:07+112m--1444.651502mSCRJalna, Maharashtra
17.1|--|BDUBadnapur  22:29-22:29-  1463.6 51523mSCRJalna, Maharashtra
17.2|--|KMVKarmad  22:47-22:47-  1479.0 51567mSCRAurangabad, Maharashtra
17.3|--|CTHChikalthanX  22:52-22:52-  1483.0 51582mSCRAurangabad, Maharashtra
17.4|--|MKDDMukundwadi Halt (1)  23:08-23:08-  1497.3 51580mSCRAurangabad, Maharashtra
18|--|AWBAurangabad (5)X  23:20+623:25+125m21507.284561mSCRAurangabad 431001, Maharashtra
18.1|--|DLBDaulatabad (1)X  23:34-23:34-  1519.7 84575mSCRDaulatabad, Maharashtra
18.2|--|POZPotul (1)  23:41-23:41-  1529.0 84554mSCRLasur, Maharashtra
19|--|LSRLasur (2)  23:49+2423:50+251m--1540.856536mSCRAurangabad, Maharashtra
19.1|--|KAJGKaranjgaonX  00:01-00:01-  2551.0 56523mSCRLasur, Maharashtra
19.2|--|PSDParsoda  00:06-00:06-  2555.6 56530mSCRRotegaon, Maharashtra
20|--|RGORotegaon  00:19+2400:20+251m--2567.935547mSCRAurangabad, Maharashtra
20.1|--|TRTarur  00:57-00:57-  2589.7 35586mSCRTaru, Maharashtra
20.2|--|NSLNagarsol (2)  01:08-01:08-  2595.9 35589mSCRDist. Nashik, Maharashtra
20.3|--/ANKAnkai (3)X  01:25-01:25-  2605.9 35620mSCRDist. Nashik, Maharashtra
20.4/--/AAKAnkaikila  01:33-01:33-  2610.5 35645mCRNasik Dist, Maharashtra
20.5/--/MMRBManmad B Cabin  01:43-01:43-  2616.5 35596mCRManmad, Maharashtra
21/--/MMRManmad Junction (6)XO  01:50-102:00+1710m52620.882580mCRManmad 423104, Maharashtra
21.1/==/SUMSummit (2)X  02:09-02:09-  2633.1 82632mCRSummit, Maharashtra
22/==/LSLasalgaon (3)X  02:18+2302:20+232m--2645.383592mCRLasalgaon, Maharashtra
22.1/==/UGNUgaon (2)  02:27-02:27-  2655.1 83568mCRUgaon, Maharashtra
22.2/==/NRNiphad (3)X  02:32-02:32-  2662.1 83550mCRNashik, Maharashtra
22.3/==/KBSNKasbe Sukene (3)  02:37-02:37-  2668.1 83548mCRKasbe Sukene, Maharashtra
22.4/==/KWKhervadi (2)  02:41-02:41-  2674.9 83553mCRKherwadi, Maharashtra
22.5/==/ODHAOdha (2)  02:47-02:47-  2681.9 83571mCRDist. Nashik, Maharashtra
23/==/NKNasik Road (3)X  02:55+1803:00+165m32693.543563mCRNashik 422101, Maharashtra
24/==/DVLDevlali (3)X  03:08+2003:10+202m22699.345561mCRDist. Nashik 422401, Maharashtra
24.1/==/LTLahavit (1)XO  03:20-03:20-  2706.8 45587mCRWadhiware, Maharashtra
24.2/==/AVAsvali (2)X  03:37-03:37-  2719.2 45578mCRAsvali, Maharashtra
24.3/==/PIPadli (1)X  03:48-03:48-  2727.7 45591mCRNational Highway 3, Maharashtra
24.4/==/GOGhoti (2)X  03:59-03:59-  2736.1 45581mCRGhoti, Maharashtra
25/==/IGPIgatpuri (4)  04:10+704:15+115m--2744.253589mCRIgatpuri 422403, Maharashtra
25.1/==/TGR2Block & Catch Siding Cabin 2  04:23-04:23-  2751.3 53473mCRNational Highway 3, Maharashtra
25.2/==/TGR3Block & Catch Siding Cabin 3  04:27-04:27-  2754.8 53365mCRNH-3, Maharashtra
25.3/==/KSRAKasara (4)  04:31-04:31-  2758.6 53290mCRDist. Thane 421602, Maharashtra
25.4/==/OMBOombermali  04:39-04:39-  2765.3 53248mCROombermali, Maharashtra
25.5/==/KEKhardi (2)  04:46-04:46-  2771.9 53232mCRKhardi, Maharashtra
25.6/==/THSThansit  04:53-04:53-  2778.1 53184mCRNational Highway 3, Maharashtra
25.7/==/ATGAtgaon (2)  05:00-05:00-  2784.0 53147mCRAtgaon, Maharashtra
25.8/==/ASOAsangaon (3)  05:11-05:11-  2793.8 5377mCRDist. Thane, Maharashtra
25.9/==/VSDVasind (2)  05:17-05:17-  2799.7 5332mCRVasind, Maharashtra
25.10/==/KDVKhadavli (3)  05:26-05:26-  2807.4 5323mCRKhadavli, Maharashtra
25.11/==/TLATitwala (3)  05:35-05:35-  2814.9 5317mCRTitwala, Maharashtra
25.12/==/ABYAmbivli (2)  05:40-05:40-  2819.8 5322mCRAmbivli, Maharashtra
25.13/==/SHADShahad (2)  05:43-05:43-  2822.8 5312mCRUlhasnagar, Maharashtra
26/==/KYNKalyan Junction (8)  05:50 05:47+2505:55 05:50+235 3m62826.05310mCRKalyan 421301, Maharashtra
26.1/==/THKThakurli (2)  05:54-05:54-  2829.6 5314mCRThakurli, Maharashtra
26.2/==/DIDombivli (5)  05:56-05:56-  2831.0 5311mCRDombivli, Maharashtra
26.3/==/KOPRKopar (4)X  05:57-05:57-  2832.3 530mCRKopar, Maharashtra
26.4/==/DIVADiva Junction (6)  06:02-06:02-  2836.6 533mCRJn Pt TNA/PNVL/KYN/BSR Diva, Maharashtra
26.5/==/MBQMumbra (2)X  06:05-06:05-  2839.2 538mCRMumbra, Maharashtra
26.6/==/KLVAKalva (2)  06:10-06:10-  2843.7 535mCRKalva, Maharashtra
27/==/TNAThane (10)X  06:13+2506:15+272m62846.26610mCRThane (West) 400602, Maharashtra
27.1/==/MLNDMulund (4)  06:17-06:17-  2848.7 6612mCRMumbai, Maharashtra
27.2/==/NHUNahur (2)  06:19-06:19-  2850.9 665mCRMumbai, Maharashtra
27.3/==/BNDBhandup (4)  06:21-06:21-  2852.6 667mCRMumbai 400078, Maharashtra
27.4/==/KJMGKanjur Marg (2)  06:23-06:23-  2854.5 665mCRMumbai, Maharashtra
27.5/==/VKVikhroli (4)X  06:24-06:24-  2856.3 6610mCRMumbai, Maharashtra
27.6/==/GCGhatkopar (4)O  06:28-06:28-  2860.0 6611mCRMumbai 400086, Maharashtra
27.7/==/VVHVidyavihar (2)  06:29-06:29-  2861.3 668mCRMumbai, Maharashtra
27.8/==/LTTMumbai Lokmanya Tilak Terminus (5)  06:30-06:30-  2862.7 667mCRMumbai - 400089, Maharashtra
27.9/==/CLAKurla Junction (8)XO  06:31-06:31-  2863.8 668mCRMumbai, Maharashtra
27.10/==/SINMumbai Sion (4)  06:33-06:33-  2866.4 667mCRMumbai, Maharashtra
27.11/==/MTNMumbai Matunga (4)  06:36-06:36-  2869.0 667mCRMumbai, Maharashtra
28/==/DRMumbai Dadar Central (8)  06:42 06:37+3306:45 06:40+343m62870.4177mCRMumbai 400014, Maharashtra
28.1/==/PRMumbai Parel (4)X  06:44-06:44-  2871.5 176mCRMumbai, Maharashtra
28.2/==/CRDMumbai Currey Road (2)  06:50-06:50-  2873.3 175mCRMumbai, Maharashtra
28.3/==/CHGMumbai Chinchpokli (2)  06:53-06:53-  2874.0 176mCRMumbai, Maharashtra
28.4/==/BYByculla (4)  06:57-06:57-  2875.2 179mCRMumbai 400027, Maharashtra
28.5/==/SNRDMumbai Sandhurst Road (4)X  07:03-07:03-  2877.0 179mCRMumbai, Maharashtra
28.6/==/MSDMumbai Masjid (4)  07:07-07:07-  2878.2 1710mCRMumbai, Maharashtra
29/==/CSTMMumbai CST (18)•  07:10+12-102879.1-10mCRMumbai 400001, Maharashtra
Scroll to Top
Scroll to Bottom